createdAt,value
2023-02-19T00:01:24.395Z,10.55
2023-02-19T00:03:52.358Z,9.93
2023-02-19T00:06:19.067Z,10.85
2023-02-19T00:08:45.517Z,10.02
2023-02-19T00:11:12.620Z,10.25
2023-02-19T00:13:40.076Z,10.68
2023-02-19T00:16:10.621Z,10.38
2023-02-19T00:21:03.481Z,10.88
2023-02-19T00:23:30.135Z,10.40
2023-02-19T00:26:00.974Z,11.18
2023-02-19T00:28:29.532Z,11.65
2023-02-19T00:30:55.811Z,11.50
2023-02-19T00:33:22.216Z,9.48
2023-02-19T00:35:48.525Z,8.60
2023-02-19T00:38:14.806Z,9.10
2023-02-19T00:40:41.036Z,9.48
2023-02-19T00:43:07.354Z,9.88
2023-02-19T00:45:35.592Z,10.05
2023-02-19T00:48:01.847Z,9.68
2023-02-19T00:50:28.080Z,9.23
2023-02-19T00:52:54.388Z,10.60
2023-02-19T00:55:20.687Z,10.15
2023-02-19T00:57:46.974Z,10.25
2023-02-19T01:00:13.430Z,10.70
2023-02-19T01:02:39.679Z,10.20
2023-02-19T01:05:06.071Z,11.40
2023-02-19T01:07:34.639Z,11.15
2023-02-19T01:10:00.932Z,10.20
2023-02-19T01:12:28.120Z,13.02
2023-02-19T01:14:55.080Z,11.98
2023-02-19T01:17:21.426Z,11.25
2023-02-19T01:19:47.741Z,11.95
2023-02-19T01:22:14.064Z,11.82
2023-02-19T01:24:40.319Z,10.80
2023-02-19T01:27:06.637Z,10.27
2023-02-19T01:29:34.186Z,10.80
2023-02-19T01:32:00.617Z,10.20
2023-02-19T01:34:30.047Z,8.38
2023-02-19T01:36:56.285Z,8.43
2023-02-19T01:39:22.573Z,8.50
2023-02-19T01:41:48.858Z,8.27
2023-02-19T01:44:15.133Z,8.02
2023-02-19T01:46:42.274Z,8.45
2023-02-19T01:49:16.242Z,7.10
2023-02-19T01:51:44.824Z,7.93
2023-02-19T01:54:12.553Z,8.07
2023-02-19T01:56:40.388Z,7.38
2023-02-19T01:59:07.404Z,6.93
2023-02-19T02:01:33.982Z,7.35
2023-02-19T02:04:00.638Z,7.45
2023-02-19T02:06:31.381Z,6.72
2023-02-19T02:09:17.121Z,6.43
2023-02-19T02:11:48.347Z,5.65
2023-02-19T02:14:15.334Z,6.45
2023-02-19T02:16:41.683Z,5.53
2023-02-19T02:19:13.790Z,5.80
2023-02-19T02:21:44.480Z,4.95
2023-02-19T02:24:37.834Z,5.18
2023-02-19T02:27:16.852Z,5.57
2023-02-19T02:29:48.833Z,4.40
2023-02-19T02:32:20.826Z,4.28
2023-02-19T02:34:53.836Z,5.35
2023-02-19T02:37:20.117Z,4.38
2023-02-19T02:39:46.814Z,5.43
2023-02-19T02:42:28.644Z,4.97
2023-02-19T02:45:13.521Z,4.45
2023-02-19T02:47:47.479Z,4.18
2023-02-19T02:50:22.280Z,4.80
2023-02-19T02:53:09.067Z,4.68
2023-02-19T02:55:38.305Z,3.90
2023-02-19T02:58:05.135Z,3.72
2023-02-19T03:00:52.310Z,3.35
2023-02-19T03:03:20.877Z,4.30
2023-02-19T03:05:54.032Z,3.78
2023-02-19T03:08:23.926Z,4.20
2023-02-19T03:11:25.067Z,4.55
2023-02-19T03:14:12.556Z,4.40
2023-02-19T03:16:57.666Z,4.55
2023-02-19T03:19:25.610Z,4.45
2023-02-19T03:22:10.109Z,5.68
2023-02-19T03:24:58.561Z,5.70
2023-02-19T03:27:26.273Z,5.05
2023-02-19T03:29:54.293Z,4.90
2023-02-19T03:32:26.817Z,4.97
2023-02-19T03:34:59.440Z,4.75
2023-02-19T03:37:29.403Z,5.60
2023-02-19T03:39:55.925Z,5.40
2023-02-19T03:42:31.321Z,5.30
2023-02-19T03:45:03.467Z,4.93
2023-02-19T03:47:33.951Z,5.65
2023-02-19T03:50:00.294Z,4.82
2023-02-19T03:52:35.628Z,4.80
2023-02-19T03:55:08.155Z,4.90
2023-02-19T03:57:37.242Z,5.00
2023-02-19T04:00:05.445Z,5.20
2023-02-19T04:02:37.591Z,5.05
2023-02-19T04:05:07.981Z,4.90
2023-02-19T04:07:37.268Z,5.65
2023-02-19T04:10:03.931Z,5.80
2023-02-19T04:12:30.679Z,5.13
2023-02-19T04:15:02.638Z,5.47
2023-02-19T04:17:37.337Z,6.07
2023-02-19T04:20:06.920Z,5.00
2023-02-19T04:22:33.879Z,5.13
2023-02-19T04:25:00.901Z,4.75
2023-02-19T04:27:27.317Z,5.05
2023-02-19T04:29:53.619Z,4.63
2023-02-19T04:32:20.042Z,5.30
2023-02-19T04:34:46.357Z,4.35
2023-02-19T04:37:12.757Z,5.28
2023-02-19T04:39:39.104Z,5.28
2023-02-19T04:42:05.380Z,5.95
2023-02-19T04:44:32.837Z,5.03
2023-02-19T04:46:59.170Z,5.78
2023-02-19T04:49:25.466Z,5.60
2023-02-19T04:51:51.724Z,4.93
2023-02-19T04:54:17.978Z,4.80
2023-02-19T04:56:44.335Z,5.45
2023-02-19T04:59:10.677Z,4.50
2023-02-19T05:01:36.988Z,5.05
2023-02-19T05:04:04.787Z,4.47
2023-02-19T05:06:31.095Z,4.57
2023-02-19T05:08:57.404Z,5.18
2023-02-19T05:11:26.740Z,4.53
2023-02-19T05:13:52.976Z,3.95
2023-02-19T05:16:19.285Z,4.85
2023-02-19T05:18:46.598Z,4.95
2023-02-19T05:21:13.382Z,5.57
2023-02-19T05:23:39.886Z,4.47
2023-02-19T05:26:06.848Z,4.68
2023-02-19T05:28:33.520Z,6.30
2023-02-19T05:31:03.481Z,4.60
2023-02-19T05:33:29.794Z,5.50
2023-02-19T05:35:56.106Z,5.20
2023-02-19T05:38:22.589Z,4.18
2023-02-19T05:40:49.197Z,4.78
2023-02-19T05:43:15.788Z,4.55
2023-02-19T05:45:42.232Z,4.88
2023-02-19T05:48:08.896Z,4.25
2023-02-19T05:50:38.194Z,4.35
2023-02-19T05:55:34.335Z,4.10
2023-02-19T05:58:00.715Z,4.22
2023-02-19T06:00:27.489Z,4.05
2023-02-19T06:02:54.255Z,4.25
2023-02-19T06:05:20.580Z,4.25
2023-02-19T06:07:46.856Z,5.00
2023-02-19T06:10:13.389Z,4.38
2023-02-19T06:12:39.703Z,3.78
2023-02-19T06:15:06.207Z,3.88
2023-02-19T06:17:32.978Z,4.15
2023-02-19T06:19:59.359Z,4.18
2023-02-19T06:22:25.648Z,4.72
2023-02-19T06:24:51.918Z,4.05
2023-02-19T06:27:18.219Z,4.80
2023-02-19T06:29:44.623Z,4.55
2023-02-19T06:32:11.054Z,4.85
2023-02-19T06:34:37.483Z,4.82
2023-02-19T06:37:03.736Z,4.03
2023-02-19T06:39:30.005Z,4.03
2023-02-19T06:41:56.978Z,4.65
2023-02-19T06:44:23.640Z,4.70
2023-02-19T06:46:49.958Z,4.15
2023-02-19T06:49:16.441Z,3.90
2023-02-19T06:51:42.787Z,3.80
2023-02-19T06:54:09.480Z,3.97
2023-02-19T06:56:37.508Z,4.00
2023-02-19T06:59:05.312Z,4.05
2023-02-19T07:01:32.630Z,5.57
2023-02-19T07:03:58.926Z,5.63
2023-02-19T07:06:26.074Z,4.68
2023-02-19T07:08:54.037Z,5.60
2023-02-19T07:11:20.481Z,5.25
2023-02-19T07:13:46.836Z,5.95
2023-02-19T07:16:13.478Z,5.35
2023-02-19T07:18:40.365Z,6.15
2023-02-19T07:21:11.756Z,5.78
2023-02-19T07:23:38.598Z,5.90
2023-02-19T07:26:05.437Z,6.38
2023-02-19T07:28:31.812Z,6.25
2023-02-19T07:31:01.904Z,6.03
2023-02-19T07:33:28.232Z,6.25
2023-02-19T07:35:54.515Z,6.93
2023-02-19T07:38:21.626Z,6.10
2023-02-19T07:41:14.242Z,6.03
2023-02-19T07:43:40.671Z,6.05
2023-02-19T07:46:08.426Z,6.55
2023-02-19T07:48:35.608Z,5.38
2023-02-19T07:51:02.654Z,6.00
2023-02-19T07:53:29.284Z,7.13
2023-02-19T07:55:59.528Z,6.93
2023-02-19T07:58:25.805Z,6.43
2023-02-19T08:00:52.110Z,6.80
2023-02-19T08:03:18.540Z,6.82
2023-02-19T08:05:45.298Z,6.28
2023-02-19T08:08:13.024Z,6.53
2023-02-19T08:10:57.899Z,8.02
2023-02-19T08:13:27.334Z,7.40
2023-02-19T08:16:18.244Z,7.60
2023-02-19T08:18:46.828Z,8.00
2023-02-19T08:21:13.553Z,8.20
2023-02-19T08:23:39.921Z,8.00
2023-02-19T08:26:06.628Z,8.95
2023-02-19T08:28:33.138Z,8.25
2023-02-19T08:31:04.257Z,7.53
2023-02-19T08:33:30.651Z,7.95
2023-02-19T08:35:57.267Z,7.50
2023-02-19T08:38:23.570Z,7.63
2023-02-19T08:40:49.841Z,7.32
2023-02-19T08:43:16.919Z,7.18
2023-02-19T08:45:44.938Z,7.80
2023-02-19T08:48:11.693Z,7.13
2023-02-19T08:50:38.325Z,7.28
2023-02-19T08:53:05.992Z,6.70
2023-02-19T08:55:34.206Z,7.57
2023-02-19T08:58:00.815Z,7.50
2023-02-19T09:00:27.453Z,8.98
2023-02-19T09:02:53.758Z,8.35
2023-02-19T09:05:20.089Z,7.28
2023-02-19T09:07:46.380Z,8.80
2023-02-19T09:10:13.475Z,8.23
2023-02-19T09:12:40.604Z,8.00
2023-02-19T09:15:07.392Z,7.70
2023-02-19T09:17:33.623Z,6.65
2023-02-19T09:19:59.894Z,6.80
2023-02-19T09:22:26.140Z,7.03
2023-02-19T09:24:52.440Z,6.05
2023-02-19T09:27:19.655Z,7.25
2023-02-19T09:29:46.045Z,6.13
2023-02-19T09:32:12.404Z,6.30
2023-02-19T09:34:41.705Z,5.88
2023-02-19T09:37:08.306Z,5.28
2023-02-19T09:39:34.654Z,5.50
2023-02-19T09:42:18.332Z,5.72
2023-02-19T09:44:47.837Z,5.68
2023-02-19T09:47:18.630Z,4.80
2023-02-19T09:49:50.017Z,6.15
2023-02-19T09:52:25.351Z,4.72
2023-02-19T09:54:57.428Z,4.30
2023-02-19T09:57:24.474Z,3.72
2023-02-19T10:00:13.899Z,3.25
2023-02-19T10:02:40.153Z,3.47
2023-02-19T10:05:13.631Z,3.72
2023-02-19T10:07:43.575Z,4.00
2023-02-19T10:10:12.600Z,3.50
2023-02-19T10:12:41.256Z,3.58
2023-02-19T10:15:11.646Z,4.18
2023-02-19T10:17:38.128Z,3.35
2023-02-19T10:20:04.840Z,4.18
2023-02-19T10:22:32.438Z,3.70
2023-02-19T10:24:58.988Z,3.70
2023-02-19T10:27:27.058Z,3.33
2023-02-19T10:29:53.289Z,3.47
2023-02-19T10:32:23.791Z,3.00
2023-02-19T10:35:08.588Z,3.67
2023-02-19T10:37:35.226Z,3.40
2023-02-19T10:40:01.570Z,3.25
2023-02-19T10:42:27.842Z,2.97
2023-02-19T10:44:58.401Z,2.90
2023-02-19T10:49:51.719Z,1.85
2023-02-19T10:52:21.057Z,2.03
2023-02-19T10:54:50.527Z,1.90
2023-02-19T10:57:19.623Z,1.58
2023-02-19T10:59:50.100Z,1.70
2023-02-19T11:02:17.349Z,1.75
2023-02-19T11:05:01.512Z,1.27
2023-02-19T11:07:28.120Z,1.73
2023-02-19T11:09:54.432Z,2.10
2023-02-19T11:12:25.680Z,1.50
2023-02-19T11:14:52.041Z,2.05
2023-02-19T11:17:28.178Z,1.75
2023-02-19T11:19:56.196Z,1.65
2023-02-19T11:22:31.884Z,2.00
2023-02-19T11:25:10.252Z,1.63
2023-02-19T11:27:37.781Z,2.15
2023-02-19T11:30:34.473Z,2.30
2023-02-19T11:33:17.451Z,1.90
2023-02-19T11:35:44.326Z,1.75
2023-02-19T11:38:11.503Z,2.03
2023-02-19T11:40:40.813Z,2.60
2023-02-19T11:43:18.407Z,1.88
2023-02-19T11:45:48.300Z,2.03
2023-02-19T11:48:30.403Z,1.85
2023-02-19T11:51:15.795Z,1.38
2023-02-19T11:53:48.085Z,1.77
2023-02-19T11:56:18.124Z,1.20
2023-02-19T11:59:01.272Z,1.10
2023-02-19T12:01:37.431Z,1.27
2023-02-19T12:04:10.700Z,1.23
2023-02-19T12:06:37.065Z,1.50
2023-02-19T12:09:06.541Z,1.20
2023-02-19T12:11:38.206Z,1.20
2023-02-19T12:14:24.743Z,1.50
2023-02-19T12:16:57.310Z,1.50
2023-02-19T12:19:28.324Z,1.50
2023-02-19T12:22:16.242Z,1.30
2023-02-19T12:25:12.102Z,1.85
2023-02-19T12:27:49.080Z,1.80
2023-02-19T12:30:18.052Z,2.05
2023-02-19T12:33:03.064Z,1.70
2023-02-19T12:35:41.199Z,1.20
2023-02-19T12:38:07.434Z,1.58
2023-02-19T12:40:33.671Z,1.83
2023-02-19T12:43:20.265Z,1.60
2023-02-19T12:46:08.476Z,1.70
2023-02-19T12:48:53.318Z,1.60
2023-02-19T12:51:23.325Z,1.67
2023-02-19T12:54:05.991Z,1.88
2023-02-19T12:56:36.286Z,1.58
2023-02-19T12:59:09.424Z,1.67
2023-02-19T13:01:41.596Z,1.48
2023-02-19T13:04:26.721Z,1.25
2023-02-19T13:06:56.155Z,2.17
2023-02-19T13:09:28.200Z,1.38
2023-02-19T13:12:01.929Z,1.75
2023-02-19T13:14:28.184Z,1.00
2023-02-19T13:16:57.880Z,1.40
2023-02-19T13:19:24.183Z,1.30
2023-02-19T13:22:11.993Z,1.48
2023-02-19T13:24:40.596Z,1.48
2023-02-19T13:27:25.508Z,1.60
2023-02-19T13:29:54.536Z,1.60
2023-02-19T13:32:39.463Z,1.40
2023-02-19T13:35:27.581Z,1.30
2023-02-19T13:37:54.678Z,1.42
2023-02-19T13:40:34.893Z,1.80
2023-02-19T13:43:02.818Z,1.75
2023-02-19T13:45:38.282Z,1.60
2023-02-19T13:48:15.112Z,2.28
2023-02-19T13:50:41.592Z,1.58
2023-02-19T13:53:26.378Z,1.50
2023-02-19T13:55:53.158Z,1.70
2023-02-19T13:58:48.674Z,2.00
2023-02-19T14:01:16.375Z,1.90
2023-02-19T14:03:42.684Z,1.95
2023-02-19T14:06:09.858Z,1.92
2023-02-19T14:08:46.242Z,2.17
2023-02-19T14:11:14.307Z,1.65
2023-02-19T14:13:49.677Z,1.30
2023-02-19T14:16:27.972Z,1.67
2023-02-19T14:18:56.181Z,1.55
2023-02-19T14:21:25.836Z,1.55
2023-02-19T14:23:58.776Z,1.42
2023-02-19T14:26:25.823Z,1.65
2023-02-19T14:28:52.666Z,1.38
2023-02-19T14:31:25.523Z,1.30
2023-02-19T14:33:53.293Z,1.20
2023-02-19T14:36:27.285Z,1.10
2023-02-19T14:38:56.202Z,1.27
2023-02-19T14:41:23.576Z,1.30
2023-02-19T14:43:51.497Z,1.23
2023-02-19T14:46:35.027Z,1.50
2023-02-19T14:49:07.184Z,1.23
2023-02-19T14:51:39.029Z,1.17
2023-02-19T14:54:19.903Z,1.15
2023-02-19T14:56:48.531Z,1.42
2023-02-19T14:59:20.627Z,1.33
2023-02-19T15:01:53.093Z,1.38
2023-02-19T15:04:23.896Z,1.45
2023-02-19T15:06:52.914Z,1.15
2023-02-19T15:09:20.201Z,2.08
2023-02-19T15:11:46.981Z,1.80
2023-02-19T15:14:19.397Z,2.25
2023-02-19T15:16:46.276Z,1.90
2023-02-19T15:19:14.145Z,2.08
2023-02-19T15:21:44.676Z,1.35
2023-02-19T15:24:11.655Z,1.40
2023-02-19T15:26:40.470Z,1.20
2023-02-19T15:29:10.866Z,1.20
2023-02-19T15:31:43.999Z,1.77
2023-02-19T15:34:18.207Z,1.10
2023-02-19T15:36:44.590Z,1.30
2023-02-19T15:39:19.479Z,1.25
2023-02-19T15:41:50.635Z,1.50
2023-02-19T15:44:19.704Z,1.30
2023-02-19T15:46:46.912Z,1.08
2023-02-19T15:49:31.056Z,1.27
2023-02-19T15:52:01.179Z,1.38
2023-02-19T15:54:30.510Z,1.08
2023-02-19T15:56:59.619Z,1.27
2023-02-19T15:59:25.843Z,1.30
2023-02-19T16:01:52.226Z,1.60
2023-02-19T16:04:19.007Z,2.03
2023-02-19T16:06:52.887Z,1.60
2023-02-19T16:09:23.453Z,1.75
2023-02-19T16:14:15.874Z,1.90
2023-02-19T16:16:42.594Z,1.60
2023-02-19T16:19:09.780Z,1.70
2023-02-19T16:21:36.167Z,1.60
2023-02-19T16:24:12.375Z,1.75
2023-02-19T16:26:39.955Z,1.65
2023-02-19T16:29:16.703Z,2.25
2023-02-19T16:31:47.576Z,2.50
2023-02-19T16:34:17.977Z,3.53
2023-02-19T16:36:45.984Z,2.92
2023-02-19T16:39:12.904Z,2.97
2023-02-19T16:41:39.173Z,2.88
2023-02-19T16:44:28.345Z,3.13
2023-02-19T16:46:57.307Z,2.72
2023-02-19T16:49:23.834Z,2.53
2023-02-19T16:51:50.808Z,3.33
2023-02-19T16:54:17.160Z,3.42
2023-02-19T16:56:43.466Z,3.67
2023-02-19T16:59:09.820Z,3.30
2023-02-19T17:01:36.630Z,3.13
2023-02-19T17:04:04.547Z,3.35
2023-02-19T17:06:32.740Z,2.90
2023-02-19T17:08:59.168Z,4.10
2023-02-19T17:11:25.474Z,3.92
2023-02-19T17:13:51.807Z,4.15
2023-02-19T17:16:22.229Z,3.83
2023-02-19T17:18:49.143Z,3.90
2023-02-19T17:21:17.391Z,3.35
2023-02-19T17:23:43.684Z,2.50
2023-02-19T17:26:13.457Z,2.85
2023-02-19T17:28:41.387Z,3.23
2023-02-19T17:31:08.609Z,2.20
2023-02-19T17:33:34.868Z,2.63
2023-02-19T17:36:01.176Z,2.55
2023-02-19T17:38:28.460Z,2.53
2023-02-19T17:40:54.688Z,2.60
2023-02-19T17:43:20.933Z,3.20
2023-02-19T17:45:47.463Z,3.13
2023-02-19T17:48:14.226Z,2.10
2023-02-19T17:50:40.699Z,1.80
2023-02-19T17:53:07.414Z,2.08
2023-02-19T17:55:33.966Z,2.05
2023-02-19T17:58:00.295Z,1.88
2023-02-19T18:00:28.531Z,1.83
2023-02-19T18:02:55.168Z,1.50
2023-02-19T18:05:22.026Z,1.30
2023-02-19T18:07:48.807Z,1.60
2023-02-19T18:10:16.317Z,1.48
2023-02-19T18:12:42.576Z,1.60
2023-02-19T18:15:10.790Z,1.15
2023-02-19T18:17:37.096Z,1.50
2023-02-19T18:20:04.650Z,1.50
2023-02-19T18:22:32.111Z,2.28
2023-02-19T18:24:58.617Z,1.90
2023-02-19T18:27:24.972Z,2.47
2023-02-19T18:29:52.110Z,2.60
2023-02-19T18:32:19.533Z,2.90
2023-02-19T18:34:50.263Z,5.55
2023-02-19T18:37:16.780Z,5.07
2023-02-19T18:39:44.401Z,3.30
2023-02-19T18:42:11.200Z,3.80
2023-02-19T18:44:37.702Z,3.60
2023-02-19T18:47:04.069Z,3.00
2023-02-19T18:49:32.226Z,3.28
2023-02-19T18:52:01.089Z,3.72
2023-02-19T18:54:31.065Z,3.90
2023-02-19T18:56:57.810Z,5.18
2023-02-19T18:59:24.144Z,3.80
2023-02-19T19:01:51.098Z,4.00
2023-02-19T19:04:17.522Z,4.38
2023-02-19T19:06:43.811Z,4.05
2023-02-19T19:09:10.320Z,4.00
2023-02-19T19:11:37.109Z,3.08
2023-02-19T19:14:03.334Z,2.90
2023-02-19T19:16:29.810Z,3.83
2023-02-19T19:18:56.477Z,4.50
2023-02-19T19:21:23.076Z,5.85
2023-02-19T19:23:49.699Z,7.32
2023-02-19T19:26:16.285Z,5.95
2023-02-19T19:28:46.376Z,3.10
2023-02-19T19:31:17.236Z,2.70
2023-02-19T19:33:43.790Z,2.83
2023-02-19T19:36:11.352Z,3.65
2023-02-19T19:38:37.737Z,3.90
2023-02-19T19:41:04.598Z,3.13
2023-02-19T19:43:31.812Z,4.18
2023-02-19T19:45:58.501Z,5.20
2023-02-19T19:48:27.376Z,5.13
2023-02-19T19:50:54.287Z,4.30
2023-02-19T19:53:20.584Z,3.38
2023-02-19T19:55:46.900Z,4.60
2023-02-19T19:58:13.164Z,4.68
2023-02-19T20:00:39.461Z,6.13
2023-02-19T20:03:06.838Z,2.97
2023-02-19T20:05:33.105Z,3.10
2023-02-19T20:07:59.417Z,4.15
2023-02-19T20:10:25.720Z,2.83
2023-02-19T20:12:52.025Z,2.78
2023-02-19T20:15:22.118Z,2.78
2023-02-19T20:17:48.661Z,3.65
2023-02-19T20:20:16.532Z,3.00
2023-02-19T20:22:42.870Z,3.03
2023-02-19T20:25:09.164Z,3.30
2023-02-19T20:27:35.555Z,3.78
2023-02-19T20:30:02.069Z,3.42
2023-02-19T20:32:28.369Z,5.22
2023-02-19T20:34:54.693Z,5.88
2023-02-19T20:37:21.129Z,5.90
2023-02-19T20:39:47.430Z,5.03
2023-02-19T20:42:16.574Z,5.75
2023-02-19T20:44:43.520Z,8.15
2023-02-19T20:47:09.781Z,6.50
2023-02-19T20:49:36.220Z,8.02
2023-02-19T20:52:05.081Z,7.90
2023-02-19T20:54:32.378Z,6.50
2023-02-19T20:57:02.507Z,8.13
2023-02-19T20:59:30.878Z,6.75
2023-02-19T21:01:58.010Z,5.63
2023-02-19T21:04:24.355Z,5.20
2023-02-19T21:06:52.199Z,4.63
2023-02-19T21:09:19.127Z,6.07
2023-02-19T21:11:45.523Z,4.50
2023-02-19T21:14:11.810Z,4.90
2023-02-19T21:16:38.209Z,6.57
2023-02-19T21:19:04.527Z,5.38
2023-02-19T21:21:31.771Z,5.85
2023-02-19T21:23:59.276Z,4.70
2023-02-19T21:26:32.389Z,4.32
2023-02-19T21:28:58.697Z,3.90
2023-02-19T21:31:25.562Z,3.42
2023-02-19T21:33:51.945Z,3.83
2023-02-19T21:36:18.313Z,4.85
2023-02-19T21:38:44.566Z,4.15
2023-02-19T21:41:10.801Z,3.95
2023-02-19T21:43:37.030Z,3.83
2023-02-19T21:46:03.598Z,3.58
2023-02-19T21:48:29.908Z,3.72
2023-02-19T21:50:56.217Z,4.85
2023-02-19T21:53:22.577Z,3.90
2023-02-19T21:55:58.375Z,5.38
2023-02-19T21:58:25.253Z,7.30
2023-02-19T22:00:53.678Z,7.32
2023-02-19T22:03:20.061Z,4.50
2023-02-19T22:05:46.414Z,4.07
2023-02-19T22:08:15.485Z,3.72
2023-02-19T22:10:42.492Z,4.25
2023-02-19T22:13:09.003Z,4.38
2023-02-19T22:15:35.296Z,4.30
2023-02-19T22:18:01.777Z,5.03
2023-02-19T22:20:28.302Z,4.40
2023-02-19T22:22:54.557Z,4.57
2023-02-19T22:25:20.841Z,4.40
2023-02-19T22:27:48.794Z,4.80
2023-02-19T22:30:15.316Z,4.70
2023-02-19T22:32:41.694Z,5.03
2023-02-19T22:35:08.039Z,5.22
2023-02-19T22:37:34.324Z,4.90
2023-02-19T22:40:00.711Z,5.28
2023-02-19T22:42:27.278Z,5.22
2023-02-19T22:44:53.534Z,5.53
2023-02-19T22:47:19.787Z,5.22
2023-02-19T22:49:46.005Z,5.50
2023-02-19T22:52:12.470Z,5.40
2023-02-19T22:54:39.161Z,5.70
2023-02-19T22:57:05.614Z,5.32
2023-02-19T22:59:31.866Z,6.03
2023-02-19T23:01:58.130Z,7.00
2023-02-19T23:04:25.365Z,6.68
2023-02-19T23:06:52.008Z,6.95
2023-02-19T23:09:26.336Z,7.22
2023-02-19T23:11:53.060Z,6.53
2023-02-19T23:14:20.710Z,6.88
2023-02-19T23:16:47.239Z,6.72
2023-02-19T23:19:15.470Z,6.85
2023-02-19T23:21:43.151Z,7.20
2023-02-19T23:24:09.961Z,7.20
2023-02-19T23:26:36.377Z,7.13
2023-02-19T23:29:02.942Z,7.38
2023-02-19T23:31:29.322Z,7.20
2023-02-19T23:33:55.642Z,7.82
2023-02-19T23:36:23.834Z,7.10
2023-02-19T23:38:50.153Z,7.60
2023-02-19T23:41:17.291Z,8.32
2023-02-19T23:43:43.744Z,7.75
2023-02-19T23:46:13.284Z,7.60
2023-02-19T23:48:40.004Z,8.05
2023-02-19T23:51:06.293Z,7.45
2023-02-19T23:53:32.583Z,8.45
2023-02-19T23:55:58.857Z,8.82
2023-02-19T23:58:25.156Z,7.93
